Oval Lp No.11 — JL6306 — position and weather

sailwx.info

Track history (hours):
 
Tides and Currents Weather Stations Pressure Air Temp Water Temp Dewpoint Dewpoint Depression Visibility Wind Speed Wind Dir Waves Ship Positions

Oval Lp No.11

Last reported at 2016-May-29 07:25 UTC. Time now 2016-May-30 10:39 UTC.
Position N 33°58' E 135°01'.

Length 67 m; draft 3.6 m.

Type: Ship (hazmat cat A). MMSI: 431500366.

Date/timePositionNaut miles runAvg speedWind from/ knotsBaromVisibWave heightAir tempDewpointWater temp
2016-May-29 07:25N 33°58' E 135°01'1011.2
2016-May-29 06:34N 34°08' E 134°59'1211.7
2016-May-29 05:31N 34°20' E 134°59'1111.7
2016-May-29 04:33N 34°28' E 135°09'1211.8
2016-May-29 03:33N 34°35' E 135°20'3 0.9
2016-May-28 23:33N 34°36' E 135°24'10 9.9
2016-May-28 22:33N 34°30' E 135°15'1110.8
2016-May-28 21:33N 34°22' E 135°06'9 9.2
2016-May-28 20:33N 34°14' E 134°60'1111.3
2016-May-28 19:33N 34°03' E 135°01'  
2016-May-26 08:25N 34°02' E 135°01'1011.7
2016-May-26 07:33N 34°12' E 134°59'1212.1
2016-May-26 06:32N 34°24' E 135°03'1111.6
2016-May-26 05:33N 34°31' E 135°14'1110.5
2016-May-26 04:33N 34°36' E 135°25'1 0.4
2016-May-26 01:04N 34°34' E 135°26'3 5.6
2016-May-26 00:33N 34°36' E 135°23'1 0.7
2016-May-25 23:32N 34°36' E 135°23'1010.6
2016-May-25 22:33N 34°29' E 135°14'1111.0
2016-May-25 21:33N 34°21' E 135°04'9 9.2
2016-May-25 20:33N 34°13' E 134°60'13 0.3
2016-May-24 07:29N 33°60' E 135°01'1111.6
2016-May-24 06:33N 34°11' E 134°59'1212.3
2016-May-24 05:33N 34°23' E 135°02'1211.6
2016-May-24 04:33N 34°29' E 135°13'1111.0
2016-May-24 03:34N 34°36' E 135°24'2 0.7
2016-May-24 00:10N 34°34' E 135°26'3 5.7
2016-May-23 23:34N 34°36' E 135°22'1111.4
2016-May-23 22:34N 34°28' E 135°12'1111.3
2016-May-23 21:34N 34°20' E 135°02'10 9.9
2016-May-23 20:34N 34°10' E 134°60'  
2016-May-21 09:14N 33°56' E 135°02'911.7
2016-May-21 08:28N 34°05' E 134°60'1312.6
2016-May-21 07:25N 34°18' E 134°59'1011.4
2016-May-21 06:33N 34°26' E 135°06'1212.2
2016-May-21 05:33N 34°33' E 135°17'7 1.7
2016-May-21 01:27N 34°34' E 135°26'6 7.1
2016-May-21 00:33N 34°33' E 135°18'1211.8
2016-May-20 23:33N 34°25' E 135°08'1211.3
2016-May-20 22:29N 34°15' E 134°60'1111.5
2016-May-20 21:33N 34°04' E 135°01'7 0.2
2016-May-19 08:15N 33°58' E 135°01'811.1
2016-May-19 07:33N 34°06' E 135°00'  
Track history (hours):
 
Tides and Currents Weather Stations Pressure Air Temp Water Temp Dewpoint Dewpoint Depression Visibility Wind Speed Wind Dir Waves Ship Positions

Oval Lp No.11

Last reported at 2016-May-29 07:25 UTC. Time now 2016-May-30 10:39 UTC.
Position N 33°58' E 135°01'.

Length 67 m; draft 3.6 m.

Type: Ship (hazmat cat A). MMSI: 431500366.

Date/timePositionNaut miles runAvg speedWind from/ knotsBaromVisibWave heightAir tempDewpointWater temp
2016-May-29 07:25N 33°58' E 135°01'1011.2
2016-May-29 06:34N 34°08' E 134°59'1211.7
2016-May-29 05:31N 34°20' E 134°59'1111.7
2016-May-29 04:33N 34°28' E 135°09'1211.8
2016-May-29 03:33N 34°35' E 135°20'3 0.9
2016-May-28 23:33N 34°36' E 135°24'10 9.9
2016-May-28 22:33N 34°30' E 135°15'1110.8
2016-May-28 21:33N 34°22' E 135°06'9 9.2
2016-May-28 20:33N 34°14' E 134°60'1111.3
2016-May-28 19:33N 34°03' E 135°01'  
2016-May-26 08:25N 34°02' E 135°01'1011.7
2016-May-26 07:33N 34°12' E 134°59'1212.1
2016-May-26 06:32N 34°24' E 135°03'1111.6
2016-May-26 05:33N 34°31' E 135°14'1110.5
2016-May-26 04:33N 34°36' E 135°25'1 0.4
2016-May-26 01:04N 34°34' E 135°26'3 5.6
2016-May-26 00:33N 34°36' E 135°23'1 0.7
2016-May-25 23:32N 34°36' E 135°23'1010.6
2016-May-25 22:33N 34°29' E 135°14'1111.0
2016-May-25 21:33N 34°21' E 135°04'9 9.2
2016-May-25 20:33N 34°13' E 134°60'13 0.3
2016-May-24 07:29N 33°60' E 135°01'1111.6
2016-May-24 06:33N 34°11' E 134°59'1212.3
2016-May-24 05:33N 34°23' E 135°02'1211.6
2016-May-24 04:33N 34°29' E 135°13'1111.0
2016-May-24 03:34N 34°36' E 135°24'2 0.7
2016-May-24 00:10N 34°34' E 135°26'3 5.7
2016-May-23 23:34N 34°36' E 135°22'1111.4
2016-May-23 22:34N 34°28' E 135°12'1111.3
2016-May-23 21:34N 34°20' E 135°02'10 9.9
2016-May-23 20:34N 34°10' E 134°60'  
2016-May-21 09:14N 33°56' E 135°02'911.7
2016-May-21 08:28N 34°05' E 134°60'1312.6
2016-May-21 07:25N 34°18' E 134°59'1011.4
2016-May-21 06:33N 34°26' E 135°06'1212.2
2016-May-21 05:33N 34°33' E 135°17'7 1.7
2016-May-21 01:27N 34°34' E 135°26'6 7.1
2016-May-21 00:33N 34°33' E 135°18'1211.8
2016-May-20 23:33N 34°25' E 135°08'1211.3
2016-May-20 22:29N 34°15' E 134°60'1111.5
2016-May-20 21:33N 34°04' E 135°01'7 0.2
2016-May-19 08:15N 33°58' E 135°01'811.1
2016-May-19 07:33N 34°06' E 135°00'  

Dump ship's entire track history